Latest Weather Observations for Leonora Airport

IDW60801

Issued at 11:02 pm WST Friday 3 July 2015 (issued every 30 minutes, with the page automatically refreshed every 10 minutes)

About weather observations | Map of weather stations | Latest weather observations for WA | Other Formats
Station Details ID: 012241 Name: LEONORA AERO Lat: -28.88 Lon: 121.32 Height: 370.0 m
Data from the previous 72 hours. | See also: Recent months for locations in Western Australia
Date/Time
WST
Temp
°C
App
Temp
°C
Dew
Point
Rel
Hum
%
Delta-T
°C
Wind Press
QNH
hPa
Press
MSL
hPa
Rain
since 9 am
mm
Dir
 
Spd
km/h
Gust
km/h
Spd
kts
Gust
kts
03/11:00pm 11.3 8.6 3.8 60 3.4 SSE 7 9 4 5 1022.9 1022.8 0.0
03/10:30pm 10.9 8.3 4.1 63 3.1 S 7 9 4 5 1022.7 1022.6 0.0
03/10:00pm 11.4 10.0 3.7 59 3.5 CALM 0 0 0 0 1022.6 1022.5 0.0
03/09:30pm 11.8 10.6 4.5 61 3.4 CALM 0 6 0 3 1022.7 1022.6 0.0
03/09:00pm 12.4 10.9 3.1 53 4.2 CALM 0 0 0 0 1022.8 1022.7 0.0
03/08:30pm 13.1 10.9 3.5 52 4.4 W 4 7 2 4 1022.7 1022.6 0.0
03/08:00pm 13.8 12.3 3.0 48 4.9 CALM 0 0 0 0 1022.5 1022.4 0.0
03/07:30pm 14.6 11.9 2.8 45 5.4 WNW 6 15 3 8 1022.4 1022.3 0.0
03/07:00pm 15.9 14.3 2.3 40 6.2 CALM 0 0 0 0 1022.0 1021.9 0.0
03/06:30pm 17.0 15.4 2.6 38 6.7 CALM 0 0 0 0 1021.8 1021.7 0.0
03/06:00pm 18.2 15.2 1.7 33 7.6 NNW 7 9 4 5 1021.5 1021.4 0.0
03/05:30pm 19.7 16.6 1.2 29 8.5 NW 7 9 4 5 1021.3 1021.2 0.0
03/05:00pm 22.1 19.1 0.6 24 9.9 NW 6 9 3 5 1020.9 1020.8 0.0
03/04:30pm 23.8 19.8 0.2 21 11.0 W 11 15 6 8 1020.8 1020.7 0.0
03/04:00pm 24.1 20.4 -0.2 20 11.2 WNW 9 19 5 10 1020.8 1020.7 0.0
03/03:30pm 24.2 20.5 -0.2 20 11.3 W 9 17 5 9 1020.9 1020.8 0.0
03/03:00pm 24.2 20.0 -0.9 19 11.5 W 11 17 6 9 1020.9 1020.8 0.0
03/02:30pm 24.1 20.0 -0.2 20 11.3 NW 11 17 6 9 1020.9 1020.8 0.0
03/02:00pm 24.1 19.6 -0.2 20 11.2 NW 13 20 7 11 1021.2 1021.1 0.0
03/01:30pm 23.7 19.2 -0.6 20 11.2 WNW 13 20 7 11 1021.4 1021.3 0.0
03/01:00pm 23.2 19.5 -0.3 21 10.8 NW 9 19 5 10 1021.7 1021.6 0.0
03/12:30pm 22.9 18.6 0.7 23 10.4 NW 13 20 7 11 1022.1 1022.0 0.0
03/12:00pm 22.0 17.6 0.5 24 9.9 NW 13 20 7 11 1022.7 1022.6 0.0
03/11:30am 21.3 17.3 0.5 25 9.6 NW 11 19 6 10 1023.2 1023.1 0.0
03/11:00am 20.2 16.3 1.1 28 8.8 NNW 11 15 6 8 1023.4 1023.4 0.0
03/10:30am 18.9 15.4 1.0 30 8.2 NNW 9 13 5 7 1024.0 1023.9 0.0
03/10:00am 17.7 14.6 1.2 33 7.4 NNW 7 11 4 6 1024.2 1024.1 0.0
03/09:30am 16.6 13.5 1.1 35 6.9 NW 7 9 4 5 1024.3 1024.2 0.0
03/09:00am 15.5 12.6 1.6 39 6.2 NNW 6 7 3 4 1024.2 1024.1 0.0
03/08:30am 14.6 13.2 3.4 47 5.2 CALM 0 4 0 2 1024.1 1024.0 0.0
03/08:00am 10.7 8.3 4.4 65 2.9 NE 6 11 3 6 1023.7 1023.7 0.0
03/07:30am 8.9 6.9 4.3 73 2.1 NE 4 7 2 4 1023.8 1023.8 0.0
03/07:00am 7.3 4.8 3.9 79 1.5 NE 6 7 3 4 1023.5 1023.5 0.0
03/06:30am 7.0 5.6 3.4 78 1.6 CALM 0 0 0 0 1023.5 1023.5 0.0
03/06:00am 7.3 5.9 3.4 76 1.7 CALM 0 0 0 0 1023.4 1023.4 0.0
03/05:30am 7.7 5.9 3.6 75 1.8 WSW 2 9 1 5 1023.2 1023.1 0.0
03/05:00am 7.9 6.5 3.4 73 2.0 CALM 0 0 0 0 1022.8 1022.7 0.0
03/04:30am 8.5 6.7 3.6 71 2.2 W 2 7 1 4 1022.8 1022.7 0.0
03/04:00am 8.3 6.9 3.8 73 2.0 CALM 0 0 0 0 1022.7 1022.6 0.0
03/03:30am 8.6 7.3 4.2 74 2.0 CALM 0 0 0 0 1022.9 1022.8 0.0
03/03:00am 8.5 7.1 3.4 70 2.2 CALM 0 0 0 0 1023.0 1022.9 0.0
03/02:30am 8.3 6.6 3.8 73 2.0 ESE 2 6 1 3 1023.2 1023.1 0.0
03/02:00am 8.3 5.7 3.0 69 2.3 SSW 6 7 3 4 1023.3 1023.2 0.0
03/01:30am 9.3 7.4 2.9 64 2.8 ENE 2 6 1 3 1023.2 1023.1 0.0
03/01:00am 10.0 6.8 3.3 63 3.0 ENE 9 11 5 6 1023.4 1023.4 0.0
03/12:30am 8.7 7.2 3.1 68 2.4 CALM 0 0 0 0 1023.7 1023.7 0.0
03/12:00am 8.9 7.3 2.5 64 2.7 CALM 0 0 0 0 1024.1 1024.0 0.0
 
Date/Time
WST
Temp
°C
App
Temp
°C
Dew
Point
Rel
Hum
%
Delta-T
°C
Wind Press
QNH
hPa
Press
MSL
hPa
Rain
since 9 am
mm
Dir
 
Spd
km/h
Gust
km/h
Spd
kts
Gust
kts
02/11:30pm 10.8 8.0 2.9 58 3.5 NE 7 7 4 4 1024.1 1024.0 0.0
02/11:00pm 11.2 9.2 2.2 54 3.9 NNE 2 7 1 4 1024.4 1024.3 0.0
02/10:30pm 10.7 9.1 2.3 56 3.7 CALM 0 0 0 0 1024.4 1024.3 0.0
02/10:00pm 11.2 9.2 2.2 54 3.9 WSW 2 6 1 3 1024.5 1024.4 0.0
02/09:30pm 13.1 11.5 2.6 49 4.7 CALM 0 0 0 0 1024.2 1024.1 0.0
02/09:00pm 13.8 11.7 1.5 43 5.4 NNE 2 7 1 4 1024.3 1024.2 0.0
02/08:30pm 15.4 11.9 1.5 39 6.2 NE 9 13 5 7 1023.7 1023.7 0.0
02/08:00pm 15.2 12.2 1.7 40 6.0 NE 7 13 4 7 1023.8 1023.8 0.0
02/07:30pm 15.2 11.8 1.7 40 6.0 NE 9 13 5 7 1024.0 1023.9 0.0
02/07:00pm 16.0 12.6 2.1 39 6.3 NE 9 9 5 5 1024.1 1024.0 0.0
02/06:30pm 16.1 14.1 2.5 40 6.2 NE 2 7 1 4 1024.0 1023.9 0.0
02/06:00pm 16.4 14.6 1.3 36 6.7 CALM 0 7 0 4 1023.8 1023.8 0.0
02/05:30pm 19.0 15.7 0.1 28 8.5 N 7 9 4 5 1023.6 1023.6 0.0
02/05:00pm 21.3 17.9 -0.6 23 9.8 N 7 9 4 5 1023.4 1023.4 0.0
02/04:30pm 22.8 19.0 -0.6 21 10.7 N 9 15 5 8 1023.2 1023.1 0.0
02/04:00pm 23.3 19.9 -0.9 20 11.0 N 7 15 4 8 1023.1 1023.0 0.0
02/03:30pm 23.4 20.0 -0.8 20 11.0 N 7 15 4 8 1023.2 1023.1 0.0
02/03:00pm 23.5 18.5 -1.4 19 11.2 N 15 22 8 12 1023.3 1023.2 0.0
02/02:30pm 23.4 20.0 -0.8 20 11.0 N 7 17 4 9 1023.5 1023.5 0.0
02/02:00pm 23.4 18.5 -0.8 20 11.0 NNW 15 22 8 12 1023.6 1023.6 0.0
02/01:30pm 23.2 19.1 -0.3 21 10.8 NW 11 22 6 12 1024.0 1023.9 0.0
02/01:00pm 23.4 19.0 0.5 22 10.7 NNW 13 24 7 13 1024.3 1024.2 0.0
02/12:30pm 23.1 17.4 -0.4 21 10.8 NNW 19 24 10 13 1024.8 1024.7 0.0
02/12:00pm 23.2 18.1 0.9 23 10.4 NNW 17 28 9 15 1025.3 1025.2 0.0
02/11:30am 22.6 17.5 1.0 24 10.1 N 17 26 9 14 1025.9 1025.9 0.0
02/11:00am 21.7 17.7 0.8 25 9.6 N 11 15 6 8 1026.5 1026.5 0.0
02/10:30am 21.0 16.4 1.3 27 9.2 N 15 20 8 11 1027.0 1026.9 0.0
02/10:00am 20.0 14.9 1.0 28 8.7 N 17 20 9 11 1027.2 1027.1 0.0
02/09:30am 18.5 12.9 1.1 31 7.9 NNE 20 28 11 15 1027.2 1027.1 0.0
02/09:00am 17.2 11.6 1.2 34 7.2 NNE 20 30 11 16 1027.0 1026.9 0.0
02/08:30am 15.5 9.6 1.6 39 6.2 NNE 22 30 12 16 1026.7 1026.7 0.0
02/08:00am 13.8 9.3 2.1 45 5.2 NNE 15 20 8 11 1026.6 1026.6 0.0
02/07:30am 10.2 8.1 3.7 64 2.9 ENE 4 7 2 4 1026.4 1026.4 0.0
02/07:00am 7.6 6.1 2.9 72 2.0 CALM 0 0 0 0 1026.3 1026.3 0.0
02/06:30am 8.0 6.4 2.7 69 2.3 CALM 0 0 0 0 1026.2 1026.2 0.0
02/06:00am 9.5 6.8 2.8 63 2.9 E 6 9 3 5 1025.9 1025.9 0.0
02/05:30am 9.4 6.6 3.2 65 2.7 ENE 7 11 4 6 1025.7 1025.7 0.0
02/05:00am 8.2 6.8 3.3 71 2.1 CALM 0 7 0 4 1025.8 1025.8 0.0
02/04:30am 8.3 6.5 3.2 70 2.2 ESE 2 9 1 5 1025.7 1025.7 0.0
02/04:00am 8.9 7.4 2.9 66 2.6 CALM 0 6 0 3 1025.7 1025.7 0.0
02/03:30am 8.7 7.2 3.1 68 2.4 CALM 0 0 0 0 1025.8 1025.8 0.0
02/03:00am 9.5 8.1 3.3 65 2.7 CALM 0 0 0 0 1025.8 1025.8 0.0
02/02:30am 9.4 7.5 2.9 64 2.8 ESE 2 6 1 3 1025.7 1025.7 0.0
02/02:00am 10.4 7.6 3.2 61 3.2 ESE 7 9 4 5 1025.7 1025.7 0.0
02/01:30am 10.8 8.0 3.4 60 3.3 ESE 7 9 4 5 1025.8 1025.8 0.0
02/01:00am 11.0 8.4 3.3 59 3.4 E 6 9 3 5 1025.8 1025.8 0.0
02/12:30am 12.4 9.7 2.8 52 4.3 E 6 9 3 5 1025.8 1025.8 0.0
02/12:00am 13.7 10.5 3.2 49 4.8 ENE 9 11 5 6 1025.9 1025.9 0.0
 
Date/Time
WST
Temp
°C
App
Temp
°C
Dew
Point
Rel
Hum
%
Delta-T
°C
Wind Press
QNH
hPa
Press
MSL
hPa
Rain
since 9 am
mm
Dir
 
Spd
km/h
Gust
km/h
Spd
kts
Gust
kts
01/11:30pm 13.8 11.0 3.0 48 4.9 ENE 7 11 4 6 1026.1 1026.1 0.0
01/11:00pm 14.5 11.8 3.9 49 4.9 NE 7 9 4 5 1026.3 1026.3 0.0
01/10:30pm 15.6 12.5 3.4 44 5.7 NE 9 13 5 7 1026.4 1026.4 0.0
01/10:00pm 15.5 12.1 3.9 46 5.4 ENE 11 13 6 7 1026.3 1026.3 0.0
01/09:30pm 15.6 12.6 4.0 46 5.5 ENE 9 13 5 7 1026.5 1026.5 0.0
01/09:00pm 15.9 12.8 3.7 44 5.7 ENE 9 13 5 7 1026.6 1026.6 0.0
01/08:30pm 16.1 13.1 3.9 44 5.8 ENE 9 11 5 6 1026.6 1026.6 0.0
01/08:00pm 16.3 13.2 3.4 42 6.0 ENE 9 11 5 6 1026.5 1026.5 0.0
01/07:30pm 16.7 13.1 2.7 39 6.5 E 11 15 6 8 1026.3 1026.3 0.0
01/07:00pm 16.5 14.0 1.8 37 6.6 ESE 4 17 2 9 1026.1 1026.1 0.0
01/06:30pm 17.4 14.3 1.4 34 7.3 ESE 7 9 4 5 1026.0 1026.0 0.0
01/06:00pm 18.1 15.0 1.6 33 7.5 SE 7 9 4 5 1025.8 1025.8 0.0
01/05:30pm 19.0 15.9 1.1 30 8.2 S 7 9 4 5 1025.6 1025.5 0.0
01/05:00pm 20.2 16.6 0.6 27 8.9 S 9 9 5 5 1025.3 1025.2 0.0
01/04:30pm 21.7 19.6 -0.9 22 10.1 CALM 0 0 0 0 1025.1 1025.0 0.0
01/04:00pm 23.0 20.6 -0.5 21 10.7 SW 2 7 1 4 1025.0 1024.9 0.0
01/03:30pm 23.3 20.9 -0.2 21 10.8 ENE 2 6 1 3 1024.7 1024.6 0.0
01/03:00pm 23.5 20.6 -1.4 19 11.2 NW 4 9 2 5 1024.8 1024.7 0.0
01/02:30pm 22.6 18.8 -0.8 21 10.6 WNW 9 15 5 8 1024.9 1024.8 0.0
01/02:00pm 22.9 19.3 0.7 23 10.3 WNW 9 15 5 8 1025.0 1024.9 0.0
01/01:30pm 22.3 17.8 -0.4 22 10.3 WNW 13 20 7 11 1025.1 1025.0 0.0
01/01:00pm 22.7 18.7 0.5 23 10.3 NNW 11 20 6 11 1025.3 1025.2 0.0
01/12:30pm 22.2 18.0 1.8 26 9.7 NW 13 24 7 13 1025.8 1025.8 0.0
01/12:00pm 21.7 18.8 2.4 28 9.2 NNW 7 15 4 8 1026.2 1026.2 0.0
01/11:30am 20.8 16.6 1.6 28 9.0 N 13 20 7 11 1026.9 1026.8 0.0
01/11:00am 20.8 16.7 2.1 29 8.8 NNE 13 20 7 11 1027.4 1027.3 0.0
01/10:30am 19.7 15.2 2.1 31 8.2 N 15 22 8 12 1027.7 1027.6 0.0
01/10:00am 18.6 14.2 2.9 35 7.4 N 15 20 8 11 1027.9 1027.8 0.0
01/09:30am 16.8 15.2 4.5 44 5.9 NNE 2 7 1 4 1027.9 1027.8 0.0
01/09:00am 13.5 12.3 4.4 54 4.2 CALM 0 6 0 3 1027.7 1027.6 -
01/08:30am 9.6 8.5 5.0 73 2.1 CALM 0 0 0 0 1027.8 1027.7 -
01/08:00am 7.1 5.7 3.5 78 1.6 CALM 0 6 0 3 1027.5 1027.4 -
01/07:30am 6.5 3.7 2.9 78 1.5 SSW 7 13 4 7 1027.3 1027.1 -
01/07:00am 5.0 3.4 2.4 83 1.1 CALM 0 0 0 0 1026.7 1026.6 -
01/06:30am 4.6 3.0 2.3 85 0.9 CALM 0 0 0 0 1026.5 1026.4 -
01/06:00am 4.3 2.2 1.5 82 1.1 SE 2 7 1 4 1026.3 1026.2 -
01/05:30am 4.5 2.1 2.0 84 1.0 ESE 4 7 2 4 1026.3 1026.2 -
01/05:00am 3.8 2.1 1.8 87 0.8 CALM 0 6 0 3 1026.4 1026.3 -
01/04:30am 3.7 1.9 1.4 85 0.9 CALM 0 0 0 0 1026.4 1026.3 -
01/04:00am 4.1 2.3 1.5 83 1.0 CALM 0 0 0 0 1026.3 1026.2 -
01/03:30am 4.8 3.1 2.0 82 1.1 CALM 0 0 0 0 1026.3 1026.2 -
01/03:00am 5.9 4.3 2.2 77 1.5 CALM 0 0 0 0 1026.4 1026.3 0.0
01/02:30am 6.2 4.6 2.3 76 1.6 CALM 0 0 0 0 1026.4 1026.3 -
01/02:00am 7.0 5.1 2.7 74 1.8 NE 2 9 1 5 1026.5 1026.4 -
01/01:30am 5.9 4.2 1.8 75 1.7 CALM 0 0 0 0 1026.7 1026.6 -
01/01:00am 7.0 5.3 2.1 71 2.0 CALM 0 0 0 0 1026.7 1026.6 -
01/12:30am 7.0 4.1 1.7 69 2.2 ESE 6 7 3 4 1026.7 1026.6 -
01/12:00am 8.3 5.3 2.1 65 2.6 E 7 7 4 4 1026.9 1026.7 -
 
Date/Time
WST
Temp
°C
App
Temp
°C
Dew
Point
Rel
Hum
%
Delta-T
°C
Wind Press
QNH
hPa
Press
MSL
hPa
Rain
since 9 am
mm
Dir
 
Spd
km/h
Gust
km/h
Spd
kts
Gust
kts
30/11:30pm 7.7 4.8 2.4 69 2.3 ESE 7 9 4 5 1026.9 1026.7 -

Other Formats:

Comma delimited format used in spreadsheet applications
http://www.bom.gov.au/fwo/IDW60801/IDW60801.94450.axf

JavaScript Object Notation format (JSON) in row-major order
http://www.bom.gov.au/fwo/IDW60801/IDW60801.94450.json